createdAt,value
2022-08-08T00:00:53.091Z,100898.69
2022-08-08T00:07:23.297Z,100848.19
2022-08-08T00:14:57.220Z,100902.56
2022-08-08T00:21:43.939Z,100842.88
2022-08-08T00:28:37.896Z,100908.13
2022-08-08T00:35:38.110Z,100922.13
2022-08-08T00:43:05.988Z,100907.25
2022-08-08T00:51:07.052Z,100909.63
2022-08-08T00:58:43.742Z,100855.84
2022-08-08T01:06:30.361Z,100903.72
2022-08-08T01:13:52.832Z,100906.09
2022-08-08T01:21:07.707Z,100850.50
2022-08-08T01:28:36.879Z,100891.69
2022-08-08T01:36:27.022Z,100889.25
2022-08-08T01:43:38.504Z,100900.00
2022-08-08T01:50:43.788Z,100903.94
2022-08-08T01:58:11.101Z,100892.31
2022-08-08T02:05:07.988Z,100903.84
2022-08-08T02:11:59.735Z,100906.94
2022-08-08T02:19:10.069Z,100842.19
2022-08-08T02:26:15.906Z,100921.31
2022-08-08T02:33:21.759Z,100918.72
2022-08-08T02:40:21.300Z,100921.00
2022-08-08T03:01:47.256Z,100937.09
2022-08-08T03:09:49.152Z,100876.81
2022-08-08T03:16:50.988Z,100924.41
2022-08-08T03:23:57.442Z,100931.09
2022-08-08T03:30:48.944Z,100939.38
2022-08-08T03:38:55.055Z,100940.38
2022-08-08T03:46:03.351Z,100943.13
2022-08-08T03:52:13.235Z,100954.66
2022-08-08T03:59:01.746Z,100952.16
2022-08-08T04:05:50.473Z,100874.66
2022-08-08T04:12:41.433Z,100964.00
2022-08-08T04:19:26.993Z,100977.09
2022-08-08T04:26:20.072Z,100977.44
2022-08-08T04:33:12.464Z,100983.72
2022-08-08T04:40:08.196Z,100985.56
2022-08-08T04:47:11.912Z,100994.41
2022-08-08T04:54:40.269Z,101004.06
2022-08-08T05:01:11.272Z,101007.38
2022-08-08T05:08:05.749Z,101009.66
2022-08-08T05:14:52.340Z,101005.06
2022-08-08T05:21:43.712Z,101028.34
2022-08-08T05:28:55.963Z,101027.81
2022-08-08T05:35:45.922Z,101031.66
2022-08-08T05:42:44.650Z,101032.34
2022-08-08T05:49:33.966Z,101038.72
2022-08-08T05:56:26.178Z,101045.97
2022-08-08T06:03:24.789Z,101055.03
2022-08-08T06:10:24.629Z,101058.59
2022-08-08T06:17:19.576Z,101061.59
2022-08-08T06:24:13.709Z,101028.84
2022-08-08T06:31:15.927Z,101065.81
2022-08-08T06:38:09.276Z,101066.81
2022-08-08T06:45:00.440Z,101080.53
2022-08-08T06:51:57.744Z,101022.72
2022-08-08T06:58:45.005Z,101087.25
2022-08-08T07:05:40.065Z,101086.06
2022-08-08T07:12:49.510Z,101084.50
2022-08-08T07:19:47.393Z,101029.19
2022-08-08T07:26:37.912Z,101089.97
2022-08-08T07:33:37.947Z,101089.28
2022-08-08T07:40:35.872Z,101091.88
2022-08-08T07:47:38.466Z,101097.66
2022-08-08T07:54:35.745Z,101090.50
2022-08-08T08:02:35.445Z,101092.34
2022-08-08T08:08:52.169Z,101106.63
2022-08-08T08:15:43.657Z,101111.28
2022-08-08T08:22:34.032Z,101101.31
2022-08-08T08:29:22.823Z,101069.94
2022-08-08T08:36:20.375Z,101091.59
2022-08-08T08:43:16.966Z,101002.44
2022-08-08T08:50:04.571Z,101101.44
2022-08-08T08:56:53.568Z,101056.38
2022-08-08T09:03:47.297Z,101094.75
2022-08-08T09:10:42.602Z,101085.91
2022-08-08T09:17:41.877Z,101003.28
2022-08-08T09:24:43.101Z,101091.56
2022-08-08T09:31:56.419Z,101087.88
2022-08-08T09:38:58.032Z,101087.81
2022-08-08T09:45:54.543Z,101078.00
2022-08-08T09:52:58.459Z,101081.97
2022-08-08T10:00:28.870Z,101070.47
2022-08-08T10:07:07.197Z,101071.91
2022-08-08T10:13:59.620Z,101063.34
2022-08-08T10:21:00.570Z,101066.41
2022-08-08T10:27:57.642Z,101056.03
2022-08-08T10:35:00.353Z,100971.72
2022-08-08T10:42:14.913Z,101025.41
2022-08-08T10:49:03.239Z,101048.09
2022-08-08T10:55:48.963Z,101046.97
2022-08-08T11:02:38.665Z,101036.19
2022-08-08T11:09:27.657Z,101044.44
2022-08-08T11:16:33.081Z,101033.47
2022-08-08T11:23:25.361Z,100940.59
2022-08-08T11:30:24.436Z,101026.06
2022-08-08T11:37:15.160Z,101027.09
2022-08-08T11:44:05.484Z,101021.53
2022-08-08T11:50:53.555Z,101006.38
2022-08-08T11:57:40.905Z,101011.25
2022-08-08T12:04:29.351Z,100996.34
2022-08-08T12:11:27.159Z,100995.34
2022-08-08T12:18:24.502Z,100955.97
2022-08-08T12:25:29.622Z,100972.47
2022-08-08T12:32:31.302Z,100984.19
2022-08-08T12:39:17.310Z,100976.00
2022-08-08T12:46:19.266Z,100957.38
2022-08-08T12:53:29.996Z,100962.94
2022-08-08T13:00:20.344Z,100964.25
2022-08-08T13:07:16.992Z,100949.78
2022-08-08T13:14:11.346Z,100951.66
2022-08-08T13:20:58.320Z,100951.94
2022-08-08T13:27:48.719Z,100935.75
2022-08-08T13:34:43.201Z,100923.69
2022-08-08T13:41:39.554Z,100928.13
2022-08-08T13:49:12.283Z,100923.66
2022-08-08T13:56:02.700Z,100924.78
2022-08-08T14:02:48.580Z,100894.00
2022-08-08T14:10:04.603Z,100920.16
2022-08-08T14:16:52.929Z,100827.94
2022-08-08T14:24:06.573Z,100907.66
2022-08-08T14:30:56.008Z,100901.06
2022-08-08T14:37:59.845Z,100895.38
2022-08-08T14:45:00.340Z,100880.91
2022-08-08T14:51:53.432Z,100898.03
2022-08-08T14:58:39.509Z,100896.09
2022-08-08T15:05:34.020Z,100842.66
2022-08-08T15:12:32.550Z,100890.66
2022-08-08T15:19:18.061Z,100895.88
2022-08-08T15:26:06.761Z,100895.88
2022-08-08T15:32:58.033Z,100888.59
2022-08-08T15:39:43.813Z,100885.09
2022-08-08T15:46:34.789Z,100890.19
2022-08-08T15:53:23.853Z,100819.38
2022-08-08T16:00:26.654Z,100857.50
2022-08-08T16:07:13.877Z,100877.00
2022-08-08T16:14:02.237Z,100885.31
2022-08-08T16:20:51.029Z,100882.22
2022-08-08T16:27:38.962Z,100876.84
2022-08-08T16:34:28.643Z,100871.97
2022-08-08T16:41:20.067Z,100887.13
2022-08-08T16:48:06.604Z,100876.00
2022-08-08T16:55:06.024Z,100792.47
2022-08-08T17:02:00.853Z,100874.91
2022-08-08T17:08:47.872Z,100882.75
2022-08-08T17:15:52.678Z,100858.41
2022-08-08T17:22:39.054Z,100869.41
2022-08-08T17:29:28.074Z,100884.06
2022-08-08T17:36:28.695Z,100877.78
2022-08-08T17:43:15.473Z,100896.28
2022-08-08T17:50:02.918Z,100883.75
2022-08-08T17:56:52.593Z,100898.44
2022-08-08T18:03:38.539Z,100907.16
2022-08-08T18:10:31.367Z,100844.13
2022-08-08T18:18:04.804Z,100921.97
2022-08-08T18:24:30.234Z,100920.69
2022-08-08T18:31:16.031Z,100795.63
2022-08-08T18:38:17.347Z,100918.16
2022-08-08T18:45:09.102Z,100936.53
2022-08-08T18:52:18.153Z,100952.63
2022-08-08T18:59:07.457Z,100949.94
2022-08-08T19:05:53.051Z,100968.44
2022-08-08T19:12:39.544Z,100979.34
2022-08-08T19:19:33.155Z,100982.16
2022-08-08T19:26:29.156Z,100911.91
2022-08-08T19:33:17.204Z,101001.72
2022-08-08T19:40:16.604Z,101001.09
2022-08-08T19:47:04.279Z,101017.38
2022-08-08T19:53:54.379Z,101023.56
2022-08-08T20:00:43.571Z,101029.94
2022-08-08T20:08:37.399Z,101034.97
2022-08-08T20:14:41.902Z,100983.66
2022-08-08T20:21:31.954Z,101031.91
2022-08-08T20:28:25.339Z,101041.94
2022-08-08T20:35:17.968Z,101047.34
2022-08-08T20:42:11.228Z,101047.06
2022-08-08T20:49:00.013Z,101058.06
2022-08-08T20:55:51.165Z,101058.16
2022-08-08T21:02:39.603Z,101072.78
2022-08-08T21:09:31.800Z,101082.16
2022-08-08T21:16:35.111Z,101079.41
2022-08-08T21:24:02.384Z,101082.34
2022-08-08T21:30:30.267Z,101080.84
2022-08-08T21:37:18.998Z,101074.94
2022-08-08T21:44:07.871Z,101066.63
2022-08-08T21:50:53.509Z,101078.00
2022-08-08T21:57:42.842Z,101078.50
2022-08-08T22:04:31.412Z,101074.53
2022-08-08T22:11:51.257Z,101070.59
2022-08-08T22:18:22.769Z,101081.13
2022-08-08T22:25:24.712Z,101082.03
2022-08-08T22:32:11.341Z,101085.81
2022-08-08T22:38:56.908Z,101083.88
2022-08-08T22:45:46.642Z,101049.22
2022-08-08T22:52:38.803Z,101090.34
2022-08-08T22:59:58.890Z,101086.72
2022-08-08T23:06:47.967Z,101083.09
2022-08-08T23:13:53.857Z,101087.53
2022-08-08T23:20:54.451Z,101085.09
2022-08-08T23:27:46.335Z,101092.34
2022-08-08T23:34:32.436Z,101029.84
2022-08-08T23:41:24.716Z,101091.53
2022-08-08T23:49:02.528Z,101043.47
2022-08-08T23:55:22.405Z,101091.84
